Time;durP1;ratioP1;P1;durP2;ratioP2;P2;SDS_P1;SDS_P2;PMS_P1;PMS_P2;Temp;Humidity;BMP_temperature;BMP_pressure;BME280_temperature;BME280_humidity;BME280_pressure;Samples;Min_cycle;Max_cycle;Signal;HPM_P1;HPM_P2
2022/02/02 00:00:19;;;;;;;5.22;2.90;;;4.70;91.40;;;;;;5034162;28;20513;-75
2022/02/02 00:02:51;;;;;;;7.53;3.38;;;4.70;91.80;;;;;;5034103;28;20024;-75
2022/02/02 00:07:55;;;;;;;9.48;4.00;;;4.80;91.00;;;;;;5033940;28;20037;-76
2022/02/02 00:13:10;;;;;;;11.57;3.95;;;4.80;90.70;;;;;;5034053;28;20032;-76
2022/02/02 00:20:57;;;;;;;7.13;4.05;;;4.90;90.10;;;;;;5033742;28;20087;-79
2022/02/02 00:23:28;;;;;;;6.10;3.78;;;4.90;90.10;;;;;;5033716;28;20466;-77
2022/02/02 00:26:06;;;;;;;8.88;4.20;;;4.90;90.10;;;;;;5033991;28;20036;-77
2022/02/02 00:28:36;;;;;;;6.40;3.47;;;5.00;90.20;;;;;;5035344;28;20033;-76
2022/02/02 00:31:03;;;;;;;7.32;3.53;;;4.90;90.40;;;;;;5035479;28;20021;-82
2022/02/02 00:33:34;;;;;;;4.80;3.20;;;4.90;90.10;;;;;;5033679;28;20429;-80
2022/02/02 00:36:10;;;;;;;3.78;2.10;;;4.90;89.70;;;;;;5033794;28;20087;-76
2022/02/02 00:38:36;;;;;;;3.85;1.65;;;4.90;88.70;;;;;;5033457;28;20478;-77
2022/02/02 00:41:02;;;;;;;4.60;1.90;;;4.90;88.70;;;;;;5033403;28;20090;-76
2022/02/02 00:43:28;;;;;;;4.53;1.85;;;4.90;88.40;;;;;;5033475;28;20386;-81
2022/02/02 00:45:54;;;;;;;5.05;1.95;;;5.00;88.30;;;;;;5033326;28;20025;-78
2022/02/02 00:48:25;;;;;;;6.55;2.70;;;5.00;88.10;;;;;;5033354;28;20040;-77
2022/02/02 00:50:50;;;;;;;10.80;3.40;;;5.00;88.00;;;;;;5033365;28;20018;-78
2022/02/02 00:53:17;;;;;;;8.05;2.60;;;5.00;88.00;;;;;;5033257;28;20022;-82
2022/02/02 00:55:43;;;;;;;8.55;2.70;;;5.10;88.10;;;;;;5033096;28;20038;-81
2022/02/02 00:58:09;;;;;;;10.23;3.53;;;5.10;87.90;;;;;;5033199;28;20025;-80
2022/02/02 01:00:35;;;;;;;15.50;3.95;;;5.10;88.20;;;;;;5033071;28;20060;-79
2022/02/02 01:03:00;;;;;;;8.25;3.55;;;5.10;88.20;;;;;;5033120;28;20025;-80
2022/02/02 01:05:26;;;;;;;7.35;3.33;;;5.20;88.20;;;;;;5033071;28;20075;-77
2022/02/02 01:13:04;;;;;;;6.53;3.38;;;5.10;89.10;;;;;;5032944;28;20359;-80
2022/02/02 01:21:02;;;;;;;9.70;3.85;;;5.10;88.80;;;;;;5032836;28;20095;-79
2022/02/02 01:28:41;;;;;;;7.65;3.50;;;5.20;87.90;;;;;;5032826;28;20029;-77
2022/02/02 01:31:08;;;;;;;5.90;3.20;;;5.20;87.80;;;;;;5033056;28;20029;-77
2022/02/02 01:33:34;;;;;;;8.90;3.97;;;5.20;88.00;;;;;;5032779;28;20044;-76
2022/02/02 01:36:01;;;;;;;5.80;3.42;;;5.20;87.80;;;;;;5032722;28;20072;-77
2022/02/02 01:38:30;;;;;;;9.02;4.05;;;5.30;88.10;;;;;;5032643;28;20025;-76
2022/02/02 01:41:10;;;;;;;12.25;4.18;;;5.20;88.40;;;;;;5034671;28;20083;-76
2022/02/02 01:43:44;;;;;;;10.20;4.03;;;5.20;88.50;;;;;;5018988;28;20028;-76
2022/02/02 01:46:14;;;;;;;10.13;3.70;;;5.20;88.40;;;;;;5036776;28;20106;-76
2022/02/02 01:48:56;;;;;;;11.20;3.70;;;5.30;88.40;;;;;;5036566;28;20493;-76
2022/02/02 01:54:18;;;;;;;11.70;4.07;;;5.20;88.80;;;;;;5036445;28;20029;-76
2022/02/02 01:56:44;;;;;;;7.63;4.05;;;5.20;88.70;;;;;;5036472;28;20076;-77
2022/02/02 01:59:24;;;;;;;10.25;4.95;;;5.20;89.10;;;;;;5036435;28;20029;-77
2022/02/02 02:01:50;;;;;;;10.85;4.22;;;5.30;89.30;;;;;;5036370;28;20072;-77
2022/02/02 02:04:16;;;;;;;8.52;3.97;;;5.20;89.40;;;;;;5036309;28;20025;-76
2022/02/02 02:06:41;;;;;;;11.63;4.32;;;5.20;89.40;;;;;;5018482;28;20116;-77
2022/02/02 02:09:07;;;;;;;8.40;3.50;;;5.20;89.40;;;;;;5036251;28;20037;-77
2022/02/02 02:11:33;;;;;;;9.85;4.25;;;5.20;89.50;;;;;;5036138;28;20021;-74
2022/02/02 02:16:33;;;;;;;10.15;4.18;;;5.20;89.60;;;;;;5036024;28;20129;-76
2022/02/02 02:19:00;;;;;;;10.15;4.28;;;5.10;89.70;;;;;;5035954;28;20167;-76
2022/02/02 02:21:26;;;;;;;10.02;4.43;;;5.20;90.70;;;;;;5036032;28;20422;-76
2022/02/02 02:23:52;;;;;;;11.18;3.90;;;5.20;89.60;;;;;;5035949;28;20022;-75
2022/02/02 02:26:24;;;;;;;9.43;4.13;;;5.20;89.70;;;;;;5035881;28;20026;-76
2022/02/02 02:31:36;;;;;;;15.13;5.28;;;5.20;89.70;;;;;;5035815;28;20500;-78
2022/02/02 02:55:48;;;;;;;12.48;4.88;;;5.20;90.20;;;;;;5035719;28;20037;-77
2022/02/02 02:56:02;;;;;;;12.73;4.53;;;5.20;89.80;;;;;;5035252;28;20052;-76
2022/02/02 03:31:02;;;;;;;11.80;4.05;;;5.30;88.40;;;;;;5034733;28;20032;-75
2022/02/02 03:49:47;;;;;;;14.15;5.40;;;5.40;88.40;;;;;;5034323;28;20091;-75
2022/02/02 04:06:05;;;;;;;11.35;3.95;;;5.40;87.70;;;;;;5034225;28;20025;-76
2022/02/02 04:08:34;;;;;;;16.45;4.55;;;5.50;87.50;;;;;;5034025;28;20032;-76
2022/02/02 04:11:02;;;;;;;19.60;4.57;;;5.50;87.20;;;;;;5033993;28;20466;-77
2022/02/02 04:51:51;;;;;;;17.45;4.38;;;5.30;87.40;;;;;;5033166;28;20103;-75
2022/02/02 04:59:46;;;;;;;21.65;4.53;;;5.50;86.70;;;;;;5002323;28;20433;-74
2022/02/02 05:05:28;;;;;;;24.13;5.28;;;5.50;86.20;;;;;;5033290;28;20109;-77
2022/02/02 05:07:56;;;;;;;18.90;5.63;;;5.50;86.20;;;;;;5032729;28;20156;-75
2022/02/02 05:10:58;;;;;;;16.33;4.57;;;5.50;86.20;;;;;;5032926;28;20014;-74
2022/02/02 05:52:37;;;;;;;20.60;3.80;;;5.50;85.90;;;;;;5032928;28;20109;-76
2022/02/02 05:55:04;;;;;;;16.25;3.38;;;5.50;85.80;;;;;;5032781;28;20454;-74
2022/02/02 05:57:32;;;;;;;15.20;3.45;;;5.50;85.70;;;;;;5014705;28;20029;-75
2022/02/02 05:59:59;;;;;;;17.73;3.95;;;5.50;86.00;;;;;;5032663;28;20117;-77
2022/02/02 06:02:32;;;;;;;20.73;3.65;;;5.50;85.70;;;;;;5032636;28;20469;-76
2022/02/02 06:05:03;;;;;;;19.55;5.50;;;5.60;85.30;;;;;;5032776;28;20030;-77
2022/02/02 06:07:33;;;;;;;17.75;5.88;;;5.60;84.70;;;;;;5032529;28;20024;-77
2022/02/02 06:10:04;;;;;;;25.80;4.65;;;5.60;84.60;;;;;;5032646;28;20029;-77
2022/02/02 06:12:31;;;;;;;18.17;4.18;;;5.50;84.80;;;;;;5034899;28;20377;-77
2022/02/02 06:14:57;;;;;;;17.60;3.58;;;5.50;84.90;;;;;;5033959;28;20521;-76
2022/02/02 06:17:25;;;;;;;20.60;4.72;;;5.50;84.80;;;;;;5032144;28;20060;-76
2022/02/02 06:19:51;;;;;;;19.45;4.30;;;5.50;85.00;;;;;;5031978;28;20100;-74
2022/02/02 06:22:21;;;;;;;15.65;4.15;;;5.40;85.00;;;;;;5031888;28;20446;-75
2022/02/02 06:25:02;;;;;;;16.35;3.85;;;5.50;84.50;;;;;;5031976;28;20060;-76
2022/02/02 06:27:28;;;;;;;13.57;4.03;;;5.50;84.50;;;;;;5017743;28;20029;-76
2022/02/02 06:30:00;;;;;;;18.58;4.22;;;5.60;84.50;;;;;;5035338;28;20104;-77
2022/02/02 06:32:29;;;;;;;20.50;4.53;;;5.50;84.40;;;;;;5035433;28;20022;-76
2022/02/02 06:35:02;;;;;;;20.70;3.97;;;5.60;84.10;;;;;;5035482;28;20144;-74
2022/02/02 06:37:28;;;;;;;23.80;4.07;;;5.60;84.00;;;;;;5035591;28;20029;-74
2022/02/02 06:39:55;;;;;;;17.42;4.72;;;5.60;83.90;;;;;;5035494;28;20107;-77
2022/02/02 06:42:20;;;;;;;17.65;4.38;;;5.60;83.80;;;;;;5035831;28;20030;-76
2022/02/02 06:44:47;;;;;;;18.83;4.53;;;5.50;83.80;;;;;;5035582;28;20048;-75
2022/02/02 06:47:14;;;;;;;20.98;4.70;;;5.60;83.50;;;;;;5035736;28;20028;-77
2022/02/02 06:49:43;;;;;;;26.60;5.63;;;5.60;83.10;;;;;;5035680;28;20036;-76
2022/02/02 06:52:19;;;;;;;21.70;4.03;;;5.60;83.00;;;;;;5035538;28;20013;-74
2022/02/02 06:55:00;;;;;;;23.92;5.10;;;5.70;82.80;;;;;;5035454;28;20021;-75
2022/02/02 06:57:49;;;;;;;20.98;3.72;;;5.70;83.00;;;;;;5035316;28;20029;-75
2022/02/02 07:03:37;;;;;;;14.75;3.50;;;5.70;83.30;;;;;;5035378;28;20097;-75
2022/02/02 07:09:16;;;;;;;20.77;4.95;;;5.60;83.70;;;;;;5035606;28;20032;-76
2022/02/02 07:11:59;;;;;;;18.55;4.75;;;5.70;83.80;;;;;;5034887;28;20032;-76
2022/02/02 07:14:50;;;;;;;21.20;5.38;;;5.70;83.50;;;;;;5035149;28;20025;-81
2022/02/02 07:20:16;;;;;;;24.08;5.10;;;6.50;82.10;;;;;;5035347;28;20053;-79
2022/02/02 07:28:04;;;;;;;20.05;5.75;;;7.20;78.50;;;;;;5034791;28;20461;-79
2022/02/02 07:30:50;;;;;;;25.58;5.03;;;7.40;77.40;;;;;;5016817;28;20081;-79
2022/02/02 07:33:22;;;;;;;17.95;4.70;;;7.60;76.20;;;;;;5034908;28;20068;-74
2022/02/02 07:36:02;;;;;;;18.23;4.78;;;7.60;75.30;;;;;;5034652;28;20035;-75
2022/02/02 07:38:40;;;;;;;19.48;6.03;;;7.50;75.60;;;;;;5033394;28;20045;-74
2022/02/02 07:41:09;;;;;;;17.65;5.55;;;7.50;75.60;;;;;;5016733;28;20383;-75
2022/02/02 07:43:40;;;;;;;16.45;5.97;;;7.50;75.60;;;;;;5034378;28;20021;-74
2022/02/02 07:46:08;;;;;;;19.15;4.82;;;7.70;75.70;;;;;;5034296;28;20036;-74
2022/02/02 07:48:38;;;;;;;14.75;3.67;;;7.70;74.70;;;;;;5034435;28;20041;-74
2022/02/02 07:51:05;;;;;;;16.27;4.07;;;7.70;74.70;;;;;;5034032;28;20029;-74
2022/02/02 07:53:40;;;;;;;13.00;3.22;;;7.80;74.90;;;;;;5034079;28;20026;-74
2022/02/02 07:56:12;;;;;;;14.27;3.10;;;7.90;73.80;;;;;;5034357;28;20055;-77
2022/02/02 07:58:41;;;;;;;14.70;4.32;;;7.90;73.90;;;;;;5034280;28;20021;-76
2022/02/02 08:01:08;;;;;;;23.38;5.25;;;7.80;74.40;;;;;;5034111;28;20068;-74
2022/02/02 08:03:39;;;;;;;20.85;5.57;;;7.80;73.70;;;;;;5034989;28;20075;-78
2022/02/02 08:06:07;;;;;;;16.08;4.38;;;7.80;74.50;;;;;;5034354;28;20116;-79
2022/02/02 08:08:35;;;;;;;13.43;3.83;;;7.90;73.30;;;;;;5033901;28;20026;-75
2022/02/02 08:11:05;;;;;;;24.70;5.28;;;8.00;73.40;;;;;;5033854;28;20014;-78
2022/02/02 08:13:45;;;;;;;13.20;3.05;;;7.90;73.10;;;;;;5015883;28;20040;-76
2022/02/02 08:16:14;;;;;;;17.77;3.17;;;7.90;73.00;;;;;;5033739;28;20120;-76
2022/02/02 08:18:43;;;;;;;12.40;3.55;;;7.90;72.90;;;;;;5033843;28;20108;-78
2022/02/02 08:21:10;;;;;;;14.45;3.45;;;8.00;73.00;;;;;;5033566;28;20037;-76
2022/02/02 08:23:35;;;;;;;17.20;3.47;;;8.00;72.20;;;;;;5033559;28;20033;-75
2022/02/02 08:26:04;;;;;;;10.70;3.50;;;8.20;72.20;;;;;;5033491;28;20021;-79
2022/02/02 08:28:30;;;;;;;19.65;4.05;;;8.20;71.90;;;;;;5033489;28;20527;-79
2022/02/02 08:30:56;;;;;;;17.20;3.83;;;8.10;72.00;;;;;;5033464;28;20113;-78
2022/02/02 08:33:27;;;;;;;13.82;2.92;;;8.30;71.10;;;;;;5033421;28;20022;-79
2022/02/02 08:35:55;;;;;;;16.63;3.70;;;8.30;70.80;;;;;;5015780;28;20493;-77
2022/02/02 08:40:59;;;;;;;14.98;3.10;;;8.20;71.00;;;;;;5033714;28;20364;-76
2022/02/02 08:43:40;;;;;;;15.30;3.55;;;8.00;71.20;;;;;;5033773;28;20116;-76
2022/02/02 08:46:17;;;;;;;21.30;4.43;;;7.70;72.50;;;;;;5033703;28;20021;-76
2022/02/02 08:48:44;;;;;;;19.40;3.47;;;7.40;73.70;;;;;;5033409;28;20017;-77
2022/02/02 08:51:14;;;;;;;11.82;2.83;;;7.20;74.80;;;;;;5034406;28;20456;-77
2022/02/02 08:54:00;;;;;;;12.20;3.15;;;7.40;74.90;;;;;;5033949;28;20120;-75
2022/02/02 08:59:01;;;;;;;18.27;4.55;;;7.60;73.70;;;;;;5033473;28;20036;-76
2022/02/02 09:01:30;;;;;;;;;;;7.70;73.40;;;;;;5015763;28;20116;-77
2022/02/02 09:06:40;;;;;;;18.38;4.60;;;7.90;72.70;;;;;;5033118;28;20083;-77
2022/02/02 09:09:15;;;;;;;19.92;3.78;;;7.90;72.30;;;;;;5033503;28;20425;-77
2022/02/02 09:35:29;;;;;;;21.92;4.50;;;8.00;71.10;;;;;;5033959;28;20030;-81
2022/02/02 09:37:54;;;;;;;14.70;3.60;;;7.50;73.10;;;;;;5034882;28;20026;-81
2022/02/02 09:42:54;;;;;;;19.35;3.90;;;6.90;75.80;;;;;;5035373;28;20370;-81
2022/02/02 09:45:20;;;;;;;19.15;3.92;;;6.70;76.90;;;;;;5018018;28;20033;-80
2022/02/02 09:47:55;;;;;;;17.60;4.60;;;6.60;77.60;;;;;;5035767;28;20022;-79
2022/02/02 09:50:28;;;;;;;20.27;4.97;;;6.50;78.30;;;;;;5036791;28;20017;-82
2022/02/02 09:52:58;;;;;;;22.27;4.03;;;6.40;78.90;;;;;;5019001;28;20030;-82
2022/02/02 10:01:29;;;;;;;17.88;4.93;;;6.50;80.00;;;;;;5035418;28;20065;-82
2022/02/02 10:07:10;;;;;;;13.38;4.20;;;6.50;80.80;;;;;;5038292;28;20033;-82
2022/02/02 10:10:18;;;;;;;19.20;3.83;;;6.40;81.00;;;;;;5037756;28;20381;-83
2022/02/02 10:15:23;;;;;;;17.00;3.72;;;6.50;81.30;;;;;;5036022;28;20022;-82
2022/02/02 10:18:08;;;;;;;18.13;3.95;;;6.50;81.40;;;;;;5018932;28;20030;-81
2022/02/02 10:20:36;;;;;;;18.87;4.13;;;6.60;80.90;;;;;;5036402;28;20116;-81
2022/02/02 10:23:04;;;;;;;17.45;3.22;;;6.60;80.70;;;;;;5036167;28;20382;-80
2022/02/02 10:25:36;;;;;;;18.08;4.05;;;6.60;80.80;;;;;;5019136;28;20029;-81
2022/02/02 10:28:09;;;;;;;23.73;4.75;;;6.60;80.40;;;;;;5018333;28;20505;-82
2022/02/02 10:30:36;;;;;;;28.83;4.82;;;6.60;80.00;;;;;;5040958;28;20470;-81
2022/02/02 10:33:04;;;;;;;25.08;5.30;;;6.70;79.90;;;;;;5022382;28;20413;-82
2022/02/02 10:35:38;;;;;;;15.98;3.75;;;6.70;79.50;;;;;;5036097;28;20021;-81
2022/02/02 10:38:14;;;;;;;16.08;3.65;;;6.80;78.90;;;;;;5018245;28;20492;-80
2022/02/02 10:40:54;;;;;;;19.25;4.53;;;6.80;78.50;;;;;;5036644;28;20089;-80
2022/02/02 10:43:30;;;;;;;27.42;4.50;;;6.90;78.70;;;;;;5018502;28;20025;-81
2022/02/02 10:45:56;;;;;;;18.58;4.65;;;6.80;78.20;;;;;;5035913;28;20039;-81
2022/02/02 10:48:32;;;;;;;20.02;4.18;;;6.90;77.90;;;;;;5018130;28;20494;-81
2022/02/02 10:51:20;;;;;;;23.33;4.15;;;6.90;77.50;;;;;;5019033;28;20025;-79
2022/02/02 10:56:47;;;;;;;20.52;4.45;;;7.10;76.10;;;;;;5040881;28;20046;-81
2022/02/02 10:59:23;;;;;;;15.75;4.25;;;7.10;75.80;;;;;;5024610;28;20048;-80
2022/02/02 11:06:36;;;;;;;19.98;4.30;;;7.10;75.40;;;;;;5039328;28;20425;-79
2022/02/02 11:07:25;;;;;;;26.38;4.95;;;7.20;75.60;;;;;;5037280;28;20106;-79
2022/02/02 11:09:52;;;;;;;24.95;4.45;;;7.20;75.40;;;;;;5019192;28;20022;-80
2022/02/02 11:12:25;;;;;;;24.25;4.35;;;7.10;75.30;;;;;;5039860;28;20033;-79
2022/02/02 11:15:20;;;;;;;19.67;4.22;;;7.10;75.30;;;;;;5021128;28;20466;-80
2022/02/02 11:18:14;;;;;;;13.25;3.85;;;7.20;75.20;;;;;;4996369;28;20049;-80
2022/02/02 11:20:41;;;;;;;19.77;3.92;;;7.10;75.60;;;;;;5023121;28;20038;-81
2022/02/02 11:23:07;;;;;;;21.58;4.72;;;7.10;75.10;;;;;;5037982;28;20036;-81
2022/02/02 11:30:44;;;;;;;26.02;4.93;;;7.10;75.60;;;;;;5400717;23;20059;-79
2022/02/02 11:33:15;;;;;;;19.83;5.68;;;7.00;75.30;;;;;;4958578;28;20499;-79
2022/02/02 11:35:53;;;;;;;29.48;5.68;;;7.00;75.70;;;;;;4975473;28;20039;-80
2022/02/02 11:38:27;;;;;;;24.33;4.20;;;6.90;76.30;;;;;;4975931;28;20357;-80
2022/02/02 11:41:16;;;;;;;19.35;4.10;;;6.90;76.90;;;;;;4975891;28;20037;-79
2022/02/02 11:44:01;;;;;;;25.35;5.03;;;6.70;79.00;;;;;;4958605;28;20046;-80
2022/02/02 11:46:50;;;;;;;16.20;3.83;;;6.60;81.10;;;;;;4975439;28;20024;-79
2022/02/02 11:49:22;;;;;;;26.77;5.10;;;6.50;83.60;;;;;;4975526;28;20114;-80
2022/02/02 11:52:03;;;;;;;30.05;5.50;;;6.30;85.50;;;;;;4975241;28;20022;-80
2022/02/02 11:54:31;;;;;;;28.00;5.63;;;6.30;86.30;;;;;;4975257;28;20023;-79
2022/02/02 11:57:01;;;;;;;22.88;6.18;;;6.00;88.80;;;;;;4975310;28;20030;-80
2022/02/02 12:02:27;;;;;;;32.55;5.28;;;6.00;89.50;;;;;;4975176;28;20090;-80
2022/02/02 12:05:05;;;;;;;21.88;5.35;;;6.00;89.20;;;;;;4957741;28;20090;-80
2022/02/02 12:07:52;;;;;;;18.77;4.90;;;6.00;89.00;;;;;;4975245;28;20077;-80
2022/02/02 12:11:05;;;;;;;24.20;5.60;;;6.10;88.70;;;;;;4974924;28;20019;-80
2022/02/02 12:57:41;;;;;;;21.88;4.78;;;6.40;89.30;;;;;;4974667;28;20082;-79
2022/02/02 13:00:13;;;;;;;20.40;4.45;;;6.40;89.10;;;;;;4974371;28;20121;-79
2022/02/02 13:02:42;;;;;;;19.52;4.65;;;6.40;89.10;;;;;;4974296;28;20403;-79
2022/02/02 13:05:10;;;;;;;17.05;3.83;;;6.50;89.00;;;;;;4974231;28;20105;-79
2022/02/02 13:07:37;;;;;;;15.73;5.10;;;6.50;88.90;;;;;;4974265;28;20508;-79
2022/02/02 13:10:08;;;;;;;14.15;4.18;;;6.50;88.90;;;;;;4956910;28;20027;-79
2022/02/02 13:12:36;;;;;;;9.60;3.75;;;6.50;88.70;;;;;;4974254;28;20046;-79
2022/02/02 13:20:54;;;;;;;11.35;2.90;;;6.40;88.30;;;;;;4963570;28;20042;-78
2022/02/02 13:26:55;;;;;;;8.60;2.90;;;6.30;88.00;;;;;;4967480;28;20385;-79
2022/02/02 13:31:52;;;;;;;7.10;1.58;;;6.20;87.70;;;;;;4973887;28;20054;-78
2022/02/02 13:56:46;;;;;;;6.80;2.10;;;6.30;90.20;;;;;;4966273;28;20030;-79
2022/02/02 14:02:15;;;;;;;8.00;2.40;;;6.30;90.40;;;;;;4977577;28;20555;-78
2022/02/02 14:07:44;;;;;;;6.38;1.75;;;6.30;90.90;;;;;;4977633;28;20038;-78
2022/02/02 14:31:37;;;;;;;10.10;3.55;;;6.30;92.80;;;;;;4976651;28;20081;-77
2022/02/02 14:34:03;;;;;;;7.15;3.30;;;6.20;92.80;;;;;;4976801;28;20027;-78
2022/02/02 14:36:34;;;;;;;8.68;3.55;;;6.30;93.10;;;;;;4976849;28;20023;-77
2022/02/02 14:39:20;;;;;;;8.50;3.90;;;6.30;93.40;;;;;;4976854;28;20037;-78
2022/02/02 14:41:51;;;;;;;9.05;3.92;;;6.30;93.40;;;;;;4976717;28;20038;-79
2022/02/02 14:44:31;;;;;;;9.18;3.58;;;6.30;93.40;;;;;;4976938;28;20027;-77
2022/02/02 14:47:06;;;;;;;10.55;4.13;;;6.20;93.50;;;;;;4976217;28;20097;-78
2022/02/02 14:49:56;;;;;;;6.57;3.17;;;6.30;93.50;;;;;;4959232;28;20027;-77
2022/02/02 14:52:32;;;;;;;6.75;2.90;;;6.40;93.40;;;;;;4976351;28;20110;-78
2022/02/02 15:27:36;;;;;;;4.55;2.00;;;6.30;93.40;;;;;;4975994;28;20041;-78
2022/02/02 15:30:25;;;;;;;4.10;1.63;;;6.40;93.30;;;;;;4975490;28;20396;-79
2022/02/02 15:32:52;;;;;;;3.35;1.58;;;6.40;93.10;;;;;;4975754;28;20472;-79
2022/02/02 15:35:19;;;;;;;4.82;2.10;;;6.40;93.20;;;;;;4975626;28;20037;-79
2022/02/02 15:37:58;;;;;;;9.27;5.43;;;6.40;93.30;;;;;;4975586;28;20467;-79
2022/02/02 15:40:47;;;;;;;8.50;4.72;;;6.40;93.20;;;;;;4958223;28;20919;-78
2022/02/02 15:59:07;;;;;;;3.85;2.53;;;6.50;92.50;;;;;;4974523;28;20042;-78
2022/02/02 16:02:06;;;;;;;3.55;2.20;;;6.50;92.50;;;;;;4973915;28;20034;-78
2022/02/02 16:04:31;;;;;;;3.78;2.40;;;6.50;92.30;;;;;;4975244;28;20027;-78
2022/02/02 16:07:01;;;;;;;4.70;2.20;;;6.50;92.30;;;;;;4974975;28;20027;-80
2022/02/02 16:09:34;;;;;;;3.67;2.72;;;6.50;92.20;;;;;;4975157;28;20369;-78
2022/02/02 16:12:09;;;;;;;4.45;2.63;;;6.50;92.20;;;;;;4975054;28;20441;-79
2022/02/02 16:14:42;;;;;;;7.07;2.67;;;6.50;92.30;;;;;;4973731;28;20073;-78
2022/02/02 16:25:36;;;;;;;5.03;2.75;;;6.50;92.40;;;;;;4975040;28;20046;-79
2022/02/02 16:34:34;;;;;;;6.90;4.10;;;6.40;92.80;;;;;;4974670;28;20084;-79
2022/02/02 16:36:39;;;;;;;6.65;4.45;;;6.30;93.20;;;;;;4968490;28;20030;-78
2022/02/02 16:39:14;;;;;;;8.20;4.75;;;6.30;93.80;;;;;;4973234;28;20073;-79
2022/02/02 16:44:24;;;;;;;8.30;4.15;;;6.30;93.90;;;;;;4974420;28;20034;-80
2022/02/02 16:46:50;;;;;;;6.15;4.10;;;6.30;93.80;;;;;;4974475;28;20396;-79
2022/02/02 16:49:16;;;;;;;5.45;3.50;;;6.30;94.60;;;;;;4974491;28;20015;-79
2022/02/02 16:51:42;;;;;;;8.70;4.78;;;6.30;93.90;;;;;;4974263;28;20023;-80
2022/02/02 16:54:15;;;;;;;5.35;3.78;;;6.30;94.10;;;;;;4974351;28;20022;-79
2022/02/02 16:56:59;;;;;;;7.63;4.20;;;6.30;94.00;;;;;;4974789;28;20730;-81
2022/02/02 17:32:15;;;;;;;9.50;5.28;;;6.40;93.20;;;;;;4973885;28;20050;-76
2022/02/02 17:40:14;;;;;;;12.10;7.70;;;6.30;93.40;;;;;;4973768;28;20503;-79
2022/02/02 18:20:32;;;;;;;12.57;8.40;;;6.40;93.50;;;;;;4967467;28;20475;-79
2022/02/02 18:23:08;;;;;;;14.13;9.55;;;6.40;93.50;;;;;;4974306;28;20114;-79
2022/02/02 18:28:10;;;;;;;19.45;10.98;;;6.40;93.40;;;;;;4977047;28;20022;-79
2022/02/02 18:34:09;;;;;;;14.05;8.80;;;6.40;93.40;;;;;;4936496;29;20046;-78
2022/02/02 18:36:52;;;;;;;12.85;7.50;;;6.40;93.40;;;;;;4936315;29;20120;-79
2022/02/02 18:47:14;;;;;;;16.50;10.68;;;6.40;93.20;;;;;;4976782;28;20525;-78
2022/02/02 18:50:07;;;;;;;18.50;10.68;;;6.40;93.10;;;;;;4976716;28;20042;-79
2022/02/02 18:58:29;;;;;;;10.20;6.33;;;6.40;93.10;;;;;;4976640;28;20034;-77
2022/02/02 19:00:50;;;;;;;13.25;7.95;;;6.40;93.00;;;;;;4974242;28;20411;-81
2022/02/02 19:03:43;;;;;;;13.13;7.07;;;6.50;93.10;;;;;;4976580;28;20019;-80
2022/02/02 19:39:59;;;;;;;10.73;7.28;;;6.50;92.80;;;;;;4975998;28;20057;-79
2022/02/02 19:54:02;;;;;;;9.35;6.32;;;6.60;92.80;;;;;;4975996;28;20034;-80
2022/02/02 20:09:22;;;;;;;9.07;4.82;;;6.50;92.90;;;;;;4975391;28;20428;-83
2022/02/02 20:11:44;;;;;;;8.23;5.47;;;6.50;93.00;;;;;;4975106;28;20035;-81
2022/02/02 20:14:12;;;;;;;10.88;5.63;;;6.50;93.00;;;;;;4967355;28;20531;-82
2022/02/02 20:16:38;;;;;;;9.07;5.90;;;6.50;93.10;;;;;;4975092;28;20035;-81
2022/02/02 20:19:07;;;;;;;8.77;5.07;;;6.50;93.10;;;;;;4975031;28;20027;-81
2022/02/02 20:21:36;;;;;;;9.13;5.82;;;6.50;93.10;;;;;;4974820;28;20105;-80
2022/02/02 20:24:05;;;;;;;9.43;5.82;;;6.50;93.10;;;;;;4974670;28;20019;-82
2022/02/02 20:26:33;;;;;;;5.47;4.07;;;6.50;93.20;;;;;;4974754;28;20027;-82
2022/02/02 20:28:59;;;;;;;6.35;3.70;;;6.50;93.30;;;;;;4974699;28;20046;-81
2022/02/02 20:31:25;;;;;;;4.85;3.60;;;6.60;93.50;;;;;;4974647;28;20046;-81
2022/02/02 20:33:52;;;;;;;6.03;3.75;;;6.60;93.70;;;;;;4974739;28;20474;-81
2022/02/02 20:36:17;;;;;;;5.47;3.90;;;6.60;93.70;;;;;;4974820;28;20107;-82
2022/02/02 20:38:43;;;;;;;7.93;5.25;;;6.60;93.80;;;;;;4974896;28;20522;-83
2022/02/02 20:41:09;;;;;;;6.45;4.88;;;6.70;94.00;;;;;;4974632;28;20035;-82
2022/02/02 20:43:46;;;;;;;6.55;4.63;;;6.70;93.90;;;;;;4974638;28;20475;-82
2022/02/02 21:05:23;;;;;;;8.40;5.20;;;6.70;93.90;;;;;;4974531;28;20027;-80
2022/02/02 21:10:30;;;;;;;8.80;6.28;;;6.70;93.80;;;;;;4974423;28;20538;-79
2022/02/02 21:15:42;;;;;;;7.03;4.75;;;6.70;93.60;;;;;;4974602;28;20037;-79
2022/02/02 21:18:19;;;;;;;5.63;4.13;;;6.70;93.70;;;;;;4974231;28;20023;-79
2022/02/02 21:20:53;;;;;;;6.57;4.30;;;6.70;93.70;;;;;;4974273;28;20031;-78
2022/02/02 21:28:27;;;;;;;6.20;3.83;;;6.80;93.20;;;;;;4974297;28;20062;-79
2022/02/02 21:30:53;;;;;;;6.15;3.90;;;6.80;93.30;;;;;;4956593;28;20426;-78
2022/02/02 21:33:18;;;;;;;7.05;4.07;;;6.80;93.40;;;;;;4973973;28;20037;-79
2022/02/02 21:35:46;;;;;;;6.20;4.00;;;6.80;93.40;;;;;;4974202;28;20097;-79
2022/02/02 21:38:31;;;;;;;6.97;4.03;;;6.80;93.30;;;;;;4974415;28;20456;-79
2022/02/02 21:40:59;;;;;;;7.03;4.28;;;6.80;93.30;;;;;;4974478;28;20497;-79
2022/02/02 21:43:26;;;;;;;5.80;3.15;;;6.80;93.20;;;;;;4974748;28;20027;-78
2022/02/02 21:45:52;;;;;;;3.88;2.72;;;6.80;92.90;;;;;;4974643;28;20105;-78
2022/02/02 21:48:19;;;;;;;6.82;3.63;;;6.80;92.90;;;;;;4975087;28;20018;-76
2022/02/02 21:50:53;;;;;;;5.28;3.08;;;6.70;92.70;;;;;;4974493;28;20070;-76
2022/02/02 21:53:19;;;;;;;5.30;2.80;;;6.80;92.70;;;;;;4973869;28;20094;-76
2022/02/02 21:55:45;;;;;;;4.90;3.05;;;6.80;92.70;;;;;;4956558;28;20487;-76
2022/02/02 21:58:12;;;;;;;4.68;3.20;;;6.80;92.70;;;;;;4976267;28;20023;-76
2022/02/02 22:00:38;;;;;;;5.80;3.10;;;6.80;92.40;;;;;;4977725;28;20031;-76
2022/02/02 22:03:04;;;;;;;4.28;3.00;;;6.80;92.50;;;;;;4978076;28;20027;-76
2022/02/02 22:05:29;;;;;;;5.15;2.95;;;6.80;92.40;;;;;;4977730;28;20372;-76
2022/02/02 22:07:55;;;;;;;4.32;3.00;;;6.90;92.40;;;;;;4977556;28;20019;-76
2022/02/02 22:10:21;;;;;;;5.25;3.22;;;6.90;92.20;;;;;;4977498;28;20059;-76
2022/02/02 22:12:47;;;;;;;3.65;2.80;;;6.80;92.10;;;;;;4977455;28;20046;-76
2022/02/02 22:15:25;;;;;;;4.57;2.60;;;6.80;92.10;;;;;;4977465;28;20476;-76
2022/02/02 22:17:51;;;;;;;4.85;3.47;;;6.80;92.10;;;;;;4977405;28;20023;-76
2022/02/02 22:20:17;;;;;;;5.22;3.92;;;6.80;92.20;;;;;;4977279;28;20058;-77
2022/02/02 22:22:45;;;;;;;4.28;2.90;;;6.90;92.40;;;;;;4977505;28;20027;-76
2022/02/02 22:25:11;;;;;;;5.03;2.85;;;6.90;92.20;;;;;;4977232;28;20460;-76
2022/02/02 22:27:37;;;;;;;3.50;2.55;;;6.90;92.10;;;;;;4977120;28;20032;-76
2022/02/02 22:30:04;;;;;;;3.65;3.00;;;6.90;92.00;;;;;;4977095;28;20070;-76
2022/02/02 22:32:30;;;;;;;5.95;3.13;;;6.90;91.90;;;;;;4977261;28;20454;-76
2022/02/02 22:34:56;;;;;;;3.65;2.35;;;6.90;91.80;;;;;;4977043;28;20023;-76
2022/02/02 22:37:22;;;;;;;3.72;2.35;;;6.90;91.80;;;;;;4977056;28;20037;-77
2022/02/02 22:39:51;;;;;;;3.08;2.25;;;6.80;91.70;;;;;;4977026;28;20473;-76
2022/02/02 22:42:18;;;;;;;2.13;1.70;;;6.90;91.70;;;;;;4976921;28;20369;-76
2022/02/02 22:44:43;;;;;;;3.45;2.08;;;6.80;91.40;;;;;;4976983;28;20030;-75
2022/02/02 22:47:11;;;;;;;3.15;2.10;;;6.80;91.40;;;;;;4976972;28;20031;-76
2022/02/02 22:49:39;;;;;;;3.35;2.40;;;6.80;91.50;;;;;;4975640;28;20467;-75
2022/02/02 22:52:06;;;;;;;2.88;2.28;;;6.80;91.50;;;;;;4976793;28;20042;-76
2022/02/02 22:54:32;;;;;;;3.60;2.58;;;6.90;91.70;;;;;;4985784;28;20015;-76
2022/02/02 22:56:57;;;;;;;2.35;2.03;;;6.90;91.40;;;;;;4992617;28;20042;-76
2022/02/02 22:59:23;;;;;;;4.88;3.20;;;6.90;91.50;;;;;;4977055;28;20061;-75
2022/02/02 23:01:56;;;;;;;4.60;3.42;;;6.90;91.60;;;;;;4976641;28;20464;-76
2022/02/02 23:04:23;;;;;;;4.93;3.60;;;6.90;91.60;;;;;;4976479;28;20018;-76
2022/02/02 23:06:48;;;;;;;6.20;4.03;;;6.90;91.80;;;;;;4976559;28;20027;-76
2022/02/02 23:09:14;;;;;;;10.07;4.43;;;6.80;91.70;;;;;;4974832;28;20082;-76
2022/02/02 23:11:40;;;;;;;6.63;4.70;;;6.80;91.90;;;;;;4976300;28;20026;-76
2022/02/02 23:14:06;;;;;;;7.32;4.50;;;6.80;92.10;;;;;;4976314;28;20023;-76
2022/02/02 23:16:38;;;;;;;7.30;4.53;;;6.80;92.20;;;;;;4976256;28;20023;-76
2022/02/02 23:19:04;;;;;;;8.52;4.97;;;6.80;92.30;;;;;;4975023;28;20031;-77
2022/02/02 23:21:30;;;;;;;6.82;4.60;;;6.80;92.40;;;;;;4976105;28;20093;-75
2022/02/02 23:24:03;;;;;;;7.38;5.07;;;6.70;92.60;;;;;;4976163;28;20023;-75
2022/02/02 23:26:30;;;;;;;7.22;4.82;;;6.80;92.60;;;;;;4976099;28;20117;-75
2022/02/02 23:28:58;;;;;;;8.55;5.20;;;6.70;92.60;;;;;;4976171;28;20372;-76
2022/02/02 23:31:26;;;;;;;8.43;5.28;;;6.70;92.60;;;;;;4975830;28;20043;-76
2022/02/02 23:33:52;;;;;;;6.40;4.15;;;6.70;92.60;;;;;;4976014;28;20099;-76
2022/02/02 23:36:19;;;;;;;6.43;4.30;;;6.70;92.80;;;;;;4975875;28;20023;-76
2022/02/02 23:38:46;;;;;;;4.82;3.78;;;6.60;92.80;;;;;;4975989;28;20054;-76
2022/02/02 23:43:49;;;;;;;4.90;3.65;;;6.70;93.10;;;;;;4976019;28;20086;-76